sensor_id;sensor_type;location;lat;lon;timestamp;pressure;altitude;pressure_sealevel;temperature;humidity
78121;BME280;67585;44.802;10.332;2023-05-01T00:00:23;100890.91;;;16.77;65.61
78121;BME280;67585;44.802;10.332;2023-05-01T00:02:49;100897.38;;;16.81;65.99
78121;BME280;67585;44.802;10.332;2023-05-01T00:05:14;100884.81;;;16.85;65.77
78121;BME280;67585;44.802;10.332;2023-05-01T00:07:40;100869.47;;;16.52;66.19
78121;BME280;67585;44.802;10.332;2023-05-01T00:10:06;100886.66;;;16.47;67.31
78121;BME280;67585;44.802;10.332;2023-05-01T00:12:31;100885.00;;;16.89;65.47
78121;BME280;67585;44.802;10.332;2023-05-01T00:14:57;100880.56;;;16.36;67.13
78121;BME280;67585;44.802;10.332;2023-05-01T00:17:22;100883.72;;;16.62;66.34
78121;BME280;67585;44.802;10.332;2023-05-01T00:19:53;100885.56;;;16.48;66.29
78121;BME280;67585;44.802;10.332;2023-05-01T00:22:19;100879.75;;;16.55;66.65
78121;BME280;67585;44.802;10.332;2023-05-01T00:24:44;100869.03;;;16.44;66.69
78121;BME280;67585;44.802;10.332;2023-05-01T00:27:12;100845.28;;;16.31;65.99
78121;BME280;67585;44.802;10.332;2023-05-01T00:29:37;100874.72;;;16.43;66.32
78121;BME280;67585;44.802;10.332;2023-05-01T00:32:03;100853.28;;;15.98;67.68
78121;BME280;67585;44.802;10.332;2023-05-01T00:34:29;100835.28;;;16.27;66.23
78121;BME280;67585;44.802;10.332;2023-05-01T00:36:55;100865.63;;;16.53;66.02
78121;BME280;67585;44.802;10.332;2023-05-01T00:39:20;100857.41;;;16.39;66.14
78121;BME280;67585;44.802;10.332;2023-05-01T00:41:46;100864.56;;;16.54;65.64
78121;BME280;67585;44.802;10.332;2023-05-01T00:44:11;100857.78;;;16.51;65.78
78121;BME280;67585;44.802;10.332;2023-05-01T00:46:37;100872.78;;;16.49;66.36
78121;BME280;67585;44.802;10.332;2023-05-01T00:49:03;100846.59;;;16.34;66.21
78121;BME280;67585;44.802;10.332;2023-05-01T00:51:28;100870.38;;;16.66;65.86
78121;BME280;67585;44.802;10.332;2023-05-01T00:53:54;100878.88;;;16.59;65.82
78121;BME280;67585;44.802;10.332;2023-05-01T00:56:20;100872.47;;;16.50;66.62
78121;BME280;67585;44.802;10.332;2023-05-01T00:58:49;100869.28;;;16.43;66.42
78121;BME280;67585;44.802;10.332;2023-05-01T01:01:17;100880.06;;;16.53;66.29
78121;BME280;67585;44.802;10.332;2023-05-01T01:03:42;100885.47;;;16.10;68.07
78121;BME280;67585;44.802;10.332;2023-05-01T01:09:08;100879.63;;;16.22;67.82
78121;BME280;67585;44.802;10.332;2023-05-01T01:11:45;100879.72;;;16.36;66.85
78121;BME280;67585;44.802;10.332;2023-05-01T01:14:17;100846.84;;;16.13;67.09
78121;BME280;67585;44.802;10.332;2023-05-01T01:17:03;100871.38;;;16.08;67.93
78121;BME280;67585;44.802;10.332;2023-05-01T01:22:23;100866.06;;;15.69;69.65
78121;BME280;67585;44.802;10.332;2023-05-01T01:25:24;100868.78;;;15.98;68.98
78121;BME280;67585;44.802;10.332;2023-05-01T01:28:29;100860.50;;;15.84;69.27
78121;BME280;67585;44.802;10.332;2023-05-01T01:36:19;100869.03;;;15.96;69.03
78121;BME280;67585;44.802;10.332;2023-05-01T01:38:53;100865.19;;;16.02;68.54
78121;BME280;67585;44.802;10.332;2023-05-01T01:41:29;100861.75;;;15.92;68.93
78121;BME280;67585;44.802;10.332;2023-05-01T01:44:15;100825.03;;;15.70;69.47
78121;BME280;67585;44.802;10.332;2023-05-01T01:46:45;100857.19;;;16.11;68.58
78121;BME280;67585;44.802;10.332;2023-05-01T01:49:19;100863.34;;;15.98;68.99
78121;BME280;67585;44.802;10.332;2023-05-01T01:51:46;100844.31;;;15.74;69.77
78121;BME280;67585;44.802;10.332;2023-05-01T01:54:14;100863.91;;;15.95;69.53
78121;BME280;67585;44.802;10.332;2023-05-01T01:56:42;100858.75;;;15.93;69.26
78121;BME280;67585;44.802;10.332;2023-05-01T01:59:10;100864.00;;;16.09;69.03
78121;BME280;67585;44.802;10.332;2023-05-01T02:01:38;100824.09;;;15.85;68.82
78121;BME280;67585;44.802;10.332;2023-05-01T02:04:06;100862.56;;;16.16;68.37
78121;BME280;67585;44.802;10.332;2023-05-01T02:06:33;100857.72;;;16.13;68.51
78121;BME280;67585;44.802;10.332;2023-05-01T02:09:01;100845.84;;;16.04;68.66
78121;BME280;67585;44.802;10.332;2023-05-01T02:11:30;100850.44;;;16.09;68.68
78121;BME280;67585;44.802;10.332;2023-05-01T02:13:58;100852.28;;;16.13;68.41
78121;BME280;67585;44.802;10.332;2023-05-01T02:16:26;100844.66;;;16.15;68.49
78121;BME280;67585;44.802;10.332;2023-05-01T02:18:53;100848.88;;;16.45;67.45
78121;BME280;67585;44.802;10.332;2023-05-01T02:21:20;100854.53;;;16.49;67.35
78121;BME280;67585;44.802;10.332;2023-05-01T02:23:47;100841.66;;;16.36;67.77
78121;BME280;67585;44.802;10.332;2023-05-01T02:26:15;100846.22;;;16.40;67.49
78121;BME280;67585;44.802;10.332;2023-05-01T02:28:41;100841.53;;;16.03;68.41
78121;BME280;67585;44.802;10.332;2023-05-01T02:31:08;100830.28;;;15.91;69.05
78121;BME280;67585;44.802;10.332;2023-05-01T02:33:33;100836.84;;;16.09;69.07
78121;BME280;67585;44.802;10.332;2023-05-01T02:35:59;100839.44;;;16.19;68.56
78121;BME280;67585;44.802;10.332;2023-05-01T02:38:24;100823.34;;;16.22;68.23
78121;BME280;67585;44.802;10.332;2023-05-01T02:40:52;100837.56;;;16.57;67.21
78121;BME280;67585;44.802;10.332;2023-05-01T02:43:20;100838.69;;;16.56;67.11
78121;BME280;67585;44.802;10.332;2023-05-01T02:45:48;100832.38;;;16.80;66.23
78121;BME280;67585;44.802;10.332;2023-05-01T02:48:17;100818.75;;;16.42;67.05
78121;BME280;67585;44.802;10.332;2023-05-01T02:50:45;100824.72;;;16.63;66.58
78121;BME280;67585;44.802;10.332;2023-05-01T02:53:12;100820.44;;;16.76;66.01
78121;BME280;67585;44.802;10.332;2023-05-01T02:55:40;100829.00;;;16.88;66.29
78121;BME280;67585;44.802;10.332;2023-05-01T02:58:07;100827.13;;;16.64;66.94
78121;BME280;67585;44.802;10.332;2023-05-01T03:00:33;100814.03;;;16.66;66.78
78121;BME280;67585;44.802;10.332;2023-05-01T03:02:59;100829.84;;;16.45;67.48
78121;BME280;67585;44.802;10.332;2023-05-01T03:05:25;100819.25;;;16.25;67.84
78121;BME280;67585;44.802;10.332;2023-05-01T03:07:51;100831.16;;;16.29;68.46
78121;BME280;67585;44.802;10.332;2023-05-01T03:10:17;100835.94;;;16.37;68.10
78121;BME280;67585;44.802;10.332;2023-05-01T03:12:42;100820.19;;;16.15;68.22
78121;BME280;67585;44.802;10.332;2023-05-01T03:15:08;100812.84;;;16.16;68.24
78121;BME280;67585;44.802;10.332;2023-05-01T03:17:35;100838.28;;;16.25;68.74
78121;BME280;67585;44.802;10.332;2023-05-01T03:20:00;100843.06;;;16.09;69.02
78121;BME280;67585;44.802;10.332;2023-05-01T03:22:28;100851.75;;;16.11;68.85
78121;BME280;67585;44.802;10.332;2023-05-01T03:24:53;100814.47;;;16.17;68.41
78121;BME280;67585;44.802;10.332;2023-05-01T03:27:19;100818.53;;;16.38;67.61
78121;BME280;67585;44.802;10.332;2023-05-01T03:29:44;100830.50;;;16.37;68.18
78121;BME280;67585;44.802;10.332;2023-05-01T03:32:11;100813.50;;;16.08;68.77
78121;BME280;67585;44.802;10.332;2023-05-01T03:34:36;100835.81;;;15.80;70.32
78121;BME280;67585;44.802;10.332;2023-05-01T03:37:02;100809.38;;;15.62;70.98
78121;BME280;67585;44.802;10.332;2023-05-01T03:39:27;100826.34;;;15.78;71.19
78121;BME280;67585;44.802;10.332;2023-05-01T03:41:53;100812.81;;;15.73;71.00
78121;BME280;67585;44.802;10.332;2023-05-01T03:44:18;100832.00;;;15.81;71.27
78121;BME280;67585;44.802;10.332;2023-05-01T03:46:43;100813.09;;;15.71;71.10
78121;BME280;67585;44.802;10.332;2023-05-01T03:49:09;100802.28;;;15.66;70.64
78121;BME280;67585;44.802;10.332;2023-05-01T03:51:34;100830.13;;;15.77;71.00
78121;BME280;67585;44.802;10.332;2023-05-01T03:53:59;100825.63;;;15.91;70.27
78121;BME280;67585;44.802;10.332;2023-05-01T03:56:25;100833.44;;;15.98;71.00
78121;BME280;67585;44.802;10.332;2023-05-01T03:58:53;100818.16;;;15.54;71.78
78121;BME280;67585;44.802;10.332;2023-05-01T04:01:19;100833.44;;;15.98;70.40
78121;BME280;67585;44.802;10.332;2023-05-01T04:03:45;100827.25;;;15.63;72.08
78121;BME280;67585;44.802;10.332;2023-05-01T04:06:11;100831.00;;;15.72;72.19
78121;BME280;67585;44.802;10.332;2023-05-01T04:08:37;100804.25;;;15.55;71.72
78121;BME280;67585;44.802;10.332;2023-05-01T04:11:02;100827.88;;;15.84;71.18
78121;BME280;67585;44.802;10.332;2023-05-01T04:13:28;100837.09;;;15.59;72.21
78121;BME280;67585;44.802;10.332;2023-05-01T04:15:53;100822.59;;;15.69;71.22
78121;BME280;67585;44.802;10.332;2023-05-01T04:18:20;100825.97;;;15.55;71.74
78121;BME280;67585;44.802;10.332;2023-05-01T04:20:45;100834.13;;;15.55;71.59
78121;BME280;67585;44.802;10.332;2023-05-01T04:23:11;100828.75;;;15.79;71.62
78121;BME280;67585;44.802;10.332;2023-05-01T04:25:36;100840.84;;;15.63;71.23
78121;BME280;67585;44.802;10.332;2023-05-01T04:28:02;100832.69;;;15.63;71.08
78121;BME280;67585;44.802;10.332;2023-05-01T04:30:29;100839.72;;;15.40;71.92
78121;BME280;67585;44.802;10.332;2023-05-01T04:32:55;100850.44;;;15.85;70.01
78121;BME280;67585;44.802;10.332;2023-05-01T04:35:21;100830.47;;;15.70;70.38
78121;BME280;67585;44.802;10.332;2023-05-01T04:37:47;100823.38;;;15.45;70.50
78121;BME280;67585;44.802;10.332;2023-05-01T04:40:13;100814.59;;;15.53;69.67
78121;BME280;67585;44.802;10.332;2023-05-01T04:42:39;100827.47;;;15.43;69.66
78121;BME280;67585;44.802;10.332;2023-05-01T04:45:05;100839.97;;;15.68;69.44
78121;BME280;67585;44.802;10.332;2023-05-01T04:47:30;100845.47;;;15.63;69.57
78121;BME280;67585;44.802;10.332;2023-05-01T04:49:56;100839.09;;;15.48;69.29
78121;BME280;67585;44.802;10.332;2023-05-01T04:52:22;100840.84;;;15.63;69.15
78121;BME280;67585;44.802;10.332;2023-05-01T04:54:47;100853.38;;;15.88;68.38
78121;BME280;67585;44.802;10.332;2023-05-01T04:57:12;100837.63;;;15.61;68.49
78121;BME280;67585;44.802;10.332;2023-05-01T04:59:38;100859.56;;;15.65;69.11
78121;BME280;67585;44.802;10.332;2023-05-01T05:02:03;100866.78;;;15.50;69.56
78121;BME280;67585;44.802;10.332;2023-05-01T05:04:29;100856.06;;;15.35;69.82
78121;BME280;67585;44.802;10.332;2023-05-01T05:06:54;100854.81;;;15.51;69.67
78121;BME280;67585;44.802;10.332;2023-05-01T05:09:20;100841.00;;;15.48;69.91
78121;BME280;67585;44.802;10.332;2023-05-01T05:11:45;100852.16;;;15.46;69.92
78121;BME280;67585;44.802;10.332;2023-05-01T05:14:11;100869.03;;;15.72;69.64
78121;BME280;67585;44.802;10.332;2023-05-01T05:16:36;100871.88;;;15.57;70.44
78121;BME280;67585;44.802;10.332;2023-05-01T05:19:01;100866.66;;;15.90;69.52
78121;BME280;67585;44.802;10.332;2023-05-01T05:21:27;100864.38;;;15.78;69.64
78121;BME280;67585;44.802;10.332;2023-05-01T05:23:53;100863.28;;;15.45;70.61
78121;BME280;67585;44.802;10.332;2023-05-01T05:26:18;100874.00;;;15.60;70.49
78121;BME280;67585;44.802;10.332;2023-05-01T05:28:43;100865.63;;;15.56;70.42
78121;BME280;67585;44.802;10.332;2023-05-01T05:31:09;100871.28;;;15.60;70.27
78121;BME280;67585;44.802;10.332;2023-05-01T05:33:35;100873.41;;;15.68;69.38
78121;BME280;67585;44.802;10.332;2023-05-01T05:36:00;100872.56;;;15.38;70.01
78121;BME280;67585;44.802;10.332;2023-05-01T05:38:26;100874.38;;;15.48;69.77
78121;BME280;67585;44.802;10.332;2023-05-01T05:40:51;100886.34;;;15.47;69.35
78121;BME280;67585;44.802;10.332;2023-05-01T05:43:18;100871.63;;;15.53;68.22
78121;BME280;67585;44.802;10.332;2023-05-01T05:45:43;100890.06;;;15.56;68.95
78121;BME280;67585;44.802;10.332;2023-05-01T05:48:09;100893.66;;;15.52;69.40
78121;BME280;67585;44.802;10.332;2023-05-01T05:50:34;100896.94;;;15.49;69.18
78121;BME280;67585;44.802;10.332;2023-05-01T05:52:59;100894.34;;;15.33;68.82
78121;BME280;67585;44.802;10.332;2023-05-01T05:55:25;100871.75;;;15.38;69.16
78121;BME280;67585;44.802;10.332;2023-05-01T05:57:50;100863.06;;;15.07;70.16
78121;BME280;67585;44.802;10.332;2023-05-01T06:00:16;100888.94;;;15.28;70.15
78121;BME280;67585;44.802;10.332;2023-05-01T06:02:41;100892.97;;;15.65;68.79
78121;BME280;67585;44.802;10.332;2023-05-01T06:05:07;100872.63;;;15.33;68.48
78121;BME280;67585;44.802;10.332;2023-05-01T06:07:34;100904.88;;;15.40;69.41
78121;BME280;67585;44.802;10.332;2023-05-01T06:10:00;100912.94;;;15.50;68.81
78121;BME280;67585;44.802;10.332;2023-05-01T06:12:29;100892.16;;;15.35;68.68
78121;BME280;67585;44.802;10.332;2023-05-01T06:14:56;100895.94;;;15.39;68.81
78121;BME280;67585;44.802;10.332;2023-05-01T06:17:22;100890.53;;;15.34;69.46
78121;BME280;67585;44.802;10.332;2023-05-01T06:19:48;100903.88;;;15.60;69.17
78121;BME280;67585;44.802;10.332;2023-05-01T06:22:13;100886.78;;;15.59;68.10
78121;BME280;67585;44.802;10.332;2023-05-01T06:24:38;100912.06;;;15.55;68.18
78121;BME280;67585;44.802;10.332;2023-05-01T06:27:04;100913.00;;;15.74;68.65
78121;BME280;67585;44.802;10.332;2023-05-01T06:29:30;100930.53;;;15.87;68.94
78121;BME280;67585;44.802;10.332;2023-05-01T06:31:55;100918.81;;;15.92;68.13
78121;BME280;67585;44.802;10.332;2023-05-01T06:34:21;100925.84;;;15.98;67.45
78121;BME280;67585;44.802;10.332;2023-05-01T06:36:46;100922.72;;;16.10;67.69
78121;BME280;67585;44.802;10.332;2023-05-01T06:39:11;100919.28;;;15.99;66.62
78121;BME280;67585;44.802;10.332;2023-05-01T06:41:37;100929.56;;;15.78;68.01
78121;BME280;67585;44.802;10.332;2023-05-01T06:44:03;100923.66;;;15.71;68.31
78121;BME280;67585;44.802;10.332;2023-05-01T06:46:29;100935.50;;;15.80;67.90
78121;BME280;67585;44.802;10.332;2023-05-01T06:48:54;100940.00;;;15.95;67.28
78121;BME280;67585;44.802;10.332;2023-05-01T06:51:20;100929.22;;;15.85;68.06
78121;BME280;67585;44.802;10.332;2023-05-01T06:53:45;100942.34;;;16.01;67.91
78121;BME280;67585;44.802;10.332;2023-05-01T06:56:10;100946.19;;;16.00;67.49
78121;BME280;67585;44.802;10.332;2023-05-01T06:58:36;100942.38;;;15.67;69.35
78121;BME280;67585;44.802;10.332;2023-05-01T07:01:01;100843.69;;;15.18;69.36
78121;BME280;67585;44.802;10.332;2023-05-01T07:03:27;100915.31;;;15.57;69.59
78121;BME280;67585;44.802;10.332;2023-05-01T07:05:53;100939.91;;;15.76;70.24
78121;BME280;67585;44.802;10.332;2023-05-01T07:08:19;100928.56;;;15.64;69.70
78121;BME280;67585;44.802;10.332;2023-05-01T07:10:45;100942.25;;;15.88;69.35
78121;BME280;67585;44.802;10.332;2023-05-01T07:13:11;100952.91;;;15.79;69.34
78121;BME280;67585;44.802;10.332;2023-05-01T07:15:37;100953.22;;;16.01;69.19
78121;BME280;67585;44.802;10.332;2023-05-01T07:18:03;100949.56;;;15.87;69.53
78121;BME280;67585;44.802;10.332;2023-05-01T07:20:31;100946.25;;;15.95;69.97
78121;BME280;67585;44.802;10.332;2023-05-01T07:22:56;100937.47;;;15.69;69.47
78121;BME280;67585;44.802;10.332;2023-05-01T07:25:22;100948.47;;;15.88;69.31
78121;BME280;67585;44.802;10.332;2023-05-01T07:27:47;100952.63;;;15.80;69.26
78121;BME280;67585;44.802;10.332;2023-05-01T07:30:13;100943.03;;;15.88;69.26
78121;BME280;67585;44.802;10.332;2023-05-01T07:32:38;100918.75;;;15.73;69.14
78121;BME280;67585;44.802;10.332;2023-05-01T07:35:04;100944.31;;;15.96;67.98
78121;BME280;67585;44.802;10.332;2023-05-01T07:37:29;100955.81;;;15.88;68.71
78121;BME280;67585;44.802;10.332;2023-05-01T07:39:55;100941.47;;;15.82;68.65
78121;BME280;67585;44.802;10.332;2023-05-01T07:42:22;100957.56;;;15.73;69.12
78121;BME280;67585;44.802;10.332;2023-05-01T07:44:49;100957.75;;;16.11;68.23
78121;BME280;67585;44.802;10.332;2023-05-01T07:47:14;100964.72;;;16.22;67.24
78121;BME280;67585;44.802;10.332;2023-05-01T07:49:40;100921.88;;;16.09;66.97
78121;BME280;67585;44.802;10.332;2023-05-01T07:52:05;100943.59;;;16.14;68.07
78121;BME280;67585;44.802;10.332;2023-05-01T07:54:35;100954.63;;;16.23;67.34
78121;BME280;67585;44.802;10.332;2023-05-01T07:57:02;100948.47;;;16.41;65.52
78121;BME280;67585;44.802;10.332;2023-05-01T07:59:28;100934.69;;;15.79;67.11
78121;BME280;67585;44.802;10.332;2023-05-01T08:01:53;100946.75;;;15.97;65.10
78121;BME280;67585;44.802;10.332;2023-05-01T08:04:19;100908.97;;;15.72;65.47
78121;BME280;67585;44.802;10.332;2023-05-01T08:06:47;100962.03;;;16.17;64.62
78121;BME280;67585;44.802;10.332;2023-05-01T08:09:13;100937.84;;;16.16;65.47
78121;BME280;67585;44.802;10.332;2023-05-01T08:11:38;100926.13;;;16.20;65.11
78121;BME280;67585;44.802;10.332;2023-05-01T08:14:04;100916.06;;;16.21;64.06
78121;BME280;67585;44.802;10.332;2023-05-01T08:16:29;100924.28;;;16.16;62.96
78121;BME280;67585;44.802;10.332;2023-05-01T08:18:55;100917.56;;;16.08;62.05
78121;BME280;67585;44.802;10.332;2023-05-01T08:21:20;100947.81;;;16.26;63.70
78121;BME280;67585;44.802;10.332;2023-05-01T08:23:45;100953.38;;;16.39;62.19
78121;BME280;67585;44.802;10.332;2023-05-01T08:26:11;100947.19;;;16.34;62.15
78121;BME280;67585;44.802;10.332;2023-05-01T08:28:36;100953.56;;;16.48;62.50
78121;BME280;67585;44.802;10.332;2023-05-01T08:31:02;100957.06;;;16.73;62.38
78121;BME280;67585;44.802;10.332;2023-05-01T08:33:28;100938.50;;;16.56;61.98
78121;BME280;67585;44.802;10.332;2023-05-01T08:35:53;100946.53;;;16.66;61.16
78121;BME280;67585;44.802;10.332;2023-05-01T08:38:19;100926.84;;;16.50;61.20
78121;BME280;67585;44.802;10.332;2023-05-01T08:40:50;100952.38;;;16.54;61.45
78121;BME280;67585;44.802;10.332;2023-05-01T08:43:17;100953.75;;;16.76;60.98
78121;BME280;67585;44.802;10.332;2023-05-01T08:45:46;100915.84;;;16.41;59.40
78121;BME280;67585;44.802;10.332;2023-05-01T08:48:12;100946.28;;;16.62;58.95
78121;BME280;67585;44.802;10.332;2023-05-01T08:50:44;100935.38;;;16.43;59.96
78121;BME280;67585;44.802;10.332;2023-05-01T08:53:10;100939.72;;;16.44;58.89
78121;BME280;67585;44.802;10.332;2023-05-01T08:55:37;100943.09;;;16.55;59.44
78121;BME280;67585;44.802;10.332;2023-05-01T08:58:03;100954.97;;;16.40;59.16
78121;BME280;67585;44.802;10.332;2023-05-01T09:00:31;100950.00;;;16.48;58.32
78121;BME280;67585;44.802;10.332;2023-05-01T09:03:00;100960.41;;;16.88;58.06
78121;BME280;67585;44.802;10.332;2023-05-01T09:05:27;100968.03;;;16.86;58.04
78121;BME280;67585;44.802;10.332;2023-05-01T09:07:53;100934.75;;;16.95;57.48
78121;BME280;67585;44.802;10.332;2023-05-01T09:10:19;100939.69;;;17.12;57.46
78121;BME280;67585;44.802;10.332;2023-05-01T09:12:48;100953.56;;;16.91;56.80
78121;BME280;67585;44.802;10.332;2023-05-01T09:15:18;100937.22;;;16.91;56.55
78121;BME280;67585;44.802;10.332;2023-05-01T09:17:44;100930.53;;;16.83;57.45
78121;BME280;67585;44.802;10.332;2023-05-01T09:20:09;100950.41;;;17.22;56.06
78121;BME280;67585;44.802;10.332;2023-05-01T09:22:35;100946.34;;;17.38;56.71
78121;BME280;67585;44.802;10.332;2023-05-01T09:25:01;100955.00;;;17.40;54.20
78121;BME280;67585;44.802;10.332;2023-05-01T09:27:28;100949.06;;;17.38;54.43
78121;BME280;67585;44.802;10.332;2023-05-01T09:29:53;100937.66;;;17.36;54.91
78121;BME280;67585;44.802;10.332;2023-05-01T09:32:24;100947.50;;;17.51;54.72
78121;BME280;67585;44.802;10.332;2023-05-01T09:34:53;100943.03;;;17.22;54.86
78121;BME280;67585;44.802;10.332;2023-05-01T09:37:32;100947.00;;;17.30;54.19
78121;BME280;67585;44.802;10.332;2023-05-01T09:40:05;100950.75;;;17.53;53.86
78121;BME280;67585;44.802;10.332;2023-05-01T09:42:34;100953.03;;;17.46;52.75
78121;BME280;67585;44.802;10.332;2023-05-01T09:45:03;100944.69;;;17.56;53.39
78121;BME280;67585;44.802;10.332;2023-05-01T09:47:29;100941.81;;;17.47;52.80
78121;BME280;67585;44.802;10.332;2023-05-01T09:49:56;100937.75;;;17.64;53.31
78121;BME280;67585;44.802;10.332;2023-05-01T09:52:30;100930.38;;;17.64;52.25
78121;BME280;67585;44.802;10.332;2023-05-01T09:55:13;100940.75;;;17.81;52.39
78121;BME280;67585;44.802;10.332;2023-05-01T09:57:40;100934.72;;;17.98;52.11
78121;BME280;67585;44.802;10.332;2023-05-01T10:00:08;100926.16;;;18.05;51.27
78121;BME280;67585;44.802;10.332;2023-05-01T10:02:34;100917.78;;;18.01;51.18
78121;BME280;67585;44.802;10.332;2023-05-01T10:05:00;100917.84;;;17.96;51.01
78121;BME280;67585;44.802;10.332;2023-05-01T10:07:26;100895.25;;;17.82;51.64
78121;BME280;67585;44.802;10.332;2023-05-01T10:09:54;100905.31;;;17.81;51.22
78121;BME280;67585;44.802;10.332;2023-05-01T10:12:28;100899.13;;;17.76;50.45
78121;BME280;67585;44.802;10.332;2023-05-01T10:14:56;100897.97;;;17.82;50.17
78121;BME280;67585;44.802;10.332;2023-05-01T10:17:22;100906.75;;;17.92;49.69
78121;BME280;67585;44.802;10.332;2023-05-01T10:19:48;100901.22;;;18.11;49.49
78121;BME280;67585;44.802;10.332;2023-05-01T10:22:14;100896.69;;;18.21;48.99
78121;BME280;67585;44.802;10.332;2023-05-01T10:24:41;100909.78;;;18.60;48.44
78121;BME280;67585;44.802;10.332;2023-05-01T10:27:08;100906.31;;;18.68;48.37
78121;BME280;67585;44.802;10.332;2023-05-01T10:29:35;100889.91;;;18.32;49.96
78121;BME280;67585;44.802;10.332;2023-05-01T10:32:04;100915.81;;;18.71;48.82
78121;BME280;67585;44.802;10.332;2023-05-01T10:34:36;100906.84;;;18.56;49.69
78121;BME280;67585;44.802;10.332;2023-05-01T10:37:11;100912.72;;;19.00;48.73
78121;BME280;67585;44.802;10.332;2023-05-01T10:39:38;100902.50;;;18.69;46.99
78121;BME280;67585;44.802;10.332;2023-05-01T10:42:07;100883.41;;;18.55;47.38
78121;BME280;67585;44.802;10.332;2023-05-01T10:44:38;100916.34;;;18.59;47.65
78121;BME280;67585;44.802;10.332;2023-05-01T10:52:29;100903.22;;;18.20;48.20
78121;BME280;67585;44.802;10.332;2023-05-01T10:57:58;100915.75;;;18.07;48.85
78121;BME280;67585;44.802;10.332;2023-05-01T11:00:24;100889.50;;;17.64;49.25
78121;BME280;67585;44.802;10.332;2023-05-01T11:02:49;100907.06;;;17.91;48.12
78121;BME280;67585;44.802;10.332;2023-05-01T11:05:14;100913.75;;;17.99;49.55
78121;BME280;67585;44.802;10.332;2023-05-01T11:07:40;100916.53;;;17.93;49.71
78121;BME280;67585;44.802;10.332;2023-05-01T11:10:24;100887.78;;;17.87;49.98
78121;BME280;67585;44.802;10.332;2023-05-01T11:12:50;100910.47;;;17.83;49.87
78121;BME280;67585;44.802;10.332;2023-05-01T11:15:32;100901.50;;;17.82;50.25
78121;BME280;67585;44.802;10.332;2023-05-01T11:18:02;100908.00;;;17.67;51.14
78121;BME280;67585;44.802;10.332;2023-05-01T11:22:56;100892.72;;;17.85;51.21
78121;BME280;67585;44.802;10.332;2023-05-01T11:25:26;100893.34;;;17.63;51.83
78121;BME280;67585;44.802;10.332;2023-05-01T11:27:54;100889.66;;;17.73;51.27
78121;BME280;67585;44.802;10.332;2023-05-01T11:30:20;100878.41;;;17.61;51.23
78121;BME280;67585;44.802;10.332;2023-05-01T11:32:47;100887.38;;;17.94;51.57
78121;BME280;67585;44.802;10.332;2023-05-01T11:35:20;100887.88;;;17.96;53.71
78121;BME280;67585;44.802;10.332;2023-05-01T11:37:47;100891.31;;;17.88;54.68
78121;BME280;67585;44.802;10.332;2023-05-01T11:42:45;100863.34;;;17.96;54.21
78121;BME280;67585;44.802;10.332;2023-05-01T11:45:11;100875.97;;;17.92;53.59
78121;BME280;67585;44.802;10.332;2023-05-01T11:47:41;100884.66;;;17.94;53.49
78121;BME280;67585;44.802;10.332;2023-05-01T11:50:08;100877.41;;;17.57;53.74
78121;BME280;67585;44.802;10.332;2023-05-01T11:52:48;100862.19;;;17.69;53.97
78121;BME280;67585;44.802;10.332;2023-05-01T11:55:14;100869.41;;;17.93;53.30
78121;BME280;67585;44.802;10.332;2023-05-01T11:57:51;100850.50;;;18.10;52.59
78121;BME280;67585;44.802;10.332;2023-05-01T12:00:28;100858.38;;;18.40;52.42
78121;BME280;67585;44.802;10.332;2023-05-01T12:03:01;100862.84;;;18.35;50.35
78121;BME280;67585;44.802;10.332;2023-05-01T12:05:29;100878.59;;;18.39;51.45
78121;BME280;67585;44.802;10.332;2023-05-01T12:08:20;100872.94;;;18.21;51.21
78121;BME280;67585;44.802;10.332;2023-05-01T12:10:49;100859.53;;;17.97;50.84
78121;BME280;67585;44.802;10.332;2023-05-01T12:13:16;100872.16;;;18.21;51.56
78121;BME280;67585;44.802;10.332;2023-05-01T12:15:44;100834.66;;;18.12;50.44
78121;BME280;67585;44.802;10.332;2023-05-01T12:18:11;100865.28;;;18.09;51.47
78121;BME280;67585;44.802;10.332;2023-05-01T12:23:09;100879.69;;;17.96;51.35
78121;BME280;67585;44.802;10.332;2023-05-01T12:25:37;100859.13;;;18.04;51.79
78121;BME280;67585;44.802;10.332;2023-05-01T12:28:15;100862.72;;;18.13;51.82
78121;BME280;67585;44.802;10.332;2023-05-01T12:30:43;100854.97;;;18.06;51.18
78121;BME280;67585;44.802;10.332;2023-05-01T12:33:14;100862.44;;;18.01;51.24
78121;BME280;67585;44.802;10.332;2023-05-01T12:35:43;100843.47;;;17.82;52.27
78121;BME280;67585;44.802;10.332;2023-05-01T12:38:13;100866.69;;;18.07;52.69
78121;BME280;67585;44.802;10.332;2023-05-01T12:40:39;100869.50;;;18.29;52.63
78121;BME280;67585;44.802;10.332;2023-05-01T12:43:05;100859.81;;;18.23;52.13
78121;BME280;67585;44.802;10.332;2023-05-01T12:45:37;100870.31;;;18.02;54.03
78121;BME280;67585;44.802;10.332;2023-05-01T12:48:10;100861.84;;;17.90;54.88
78121;BME280;67585;44.802;10.332;2023-05-01T12:50:36;100874.25;;;17.96;55.57
78121;BME280;67585;44.802;10.332;2023-05-01T12:53:02;100864.06;;;17.88;55.84
78121;BME280;67585;44.802;10.332;2023-05-01T12:55:27;100816.66;;;17.56;56.70
78121;BME280;67585;44.802;10.332;2023-05-01T12:57:53;100871.47;;;17.68;58.36
78121;BME280;67585;44.802;10.332;2023-05-01T13:00:19;100877.50;;;17.84;59.10
78121;BME280;67585;44.802;10.332;2023-05-01T13:02:45;100867.53;;;17.61;58.54
78121;BME280;67585;44.802;10.332;2023-05-01T13:05:11;100867.50;;;17.47;60.66
78121;BME280;67585;44.802;10.332;2023-05-01T13:07:37;100848.34;;;17.19;60.70